sensor_id;sensor_type;location;lat;lon;timestamp;P1;durP1;ratioP1;P2;durP2;ratioP2
12306;SDS011;6216;51.146;7.008;2022-07-06T00:00:19;3.90;;;1.53;;
12306;SDS011;6216;51.146;7.008;2022-07-06T00:02:46;3.30;;;1.40;;
12306;SDS011;6216;51.146;7.008;2022-07-06T00:05:14;2.67;;;1.40;;
12306;SDS011;6216;51.146;7.008;2022-07-06T00:07:44;2.33;;;1.23;;
12306;SDS011;6216;51.146;7.008;2022-07-06T00:10:11;4.23;;;1.33;;
12306;SDS011;6216;51.146;7.008;2022-07-06T00:12:39;3.60;;;1.67;;
12306;SDS011;6216;51.146;7.008;2022-07-06T00:15:08;2.50;;;1.70;;
12306;SDS011;6216;51.146;7.008;2022-07-06T00:17:38;3.40;;;1.93;;
12306;SDS011;6216;51.146;7.008;2022-07-06T00:20:08;8.67;;;1.97;;
12306;SDS011;6216;51.146;7.008;2022-07-06T00:22:38;4.23;;;1.30;;
12306;SDS011;6216;51.146;7.008;2022-07-06T00:25:08;3.50;;;1.30;;
12306;SDS011;6216;51.146;7.008;2022-07-06T00:27:36;4.90;;;1.50;;
12306;SDS011;6216;51.146;7.008;2022-07-06T00:30:07;4.70;;;1.83;;
12306;SDS011;6216;51.146;7.008;2022-07-06T00:32:35;2.57;;;1.13;;
12306;SDS011;6216;51.146;7.008;2022-07-06T00:35:04;2.90;;;1.53;;
12306;SDS011;6216;51.146;7.008;2022-07-06T00:37:32;3.87;;;1.50;;
12306;SDS011;6216;51.146;7.008;2022-07-06T00:40:03;5.33;;;1.83;;
12306;SDS011;6216;51.146;7.008;2022-07-06T00:42:39;4.93;;;1.40;;
12306;SDS011;6216;51.146;7.008;2022-07-06T00:45:12;2.83;;;1.83;;
12306;SDS011;6216;51.146;7.008;2022-07-06T00:47:42;4.30;;;2.10;;
12306;SDS011;6216;51.146;7.008;2022-07-06T00:50:11;3.27;;;1.50;;
12306;SDS011;6216;51.146;7.008;2022-07-06T00:52:48;2.43;;;1.43;;
12306;SDS011;6216;51.146;7.008;2022-07-06T00:55:17;5.37;;;1.70;;
12306;SDS011;6216;51.146;7.008;2022-07-06T00:57:48;3.43;;;1.43;;
12306;SDS011;6216;51.146;7.008;2022-07-06T01:00:17;3.47;;;1.47;;
12306;SDS011;6216;51.146;7.008;2022-07-06T01:02:47;7.30;;;2.20;;
12306;SDS011;6216;51.146;7.008;2022-07-06T01:05:16;4.07;;;1.93;;
12306;SDS011;6216;51.146;7.008;2022-07-06T01:07:49;7.77;;;2.10;;
12306;SDS011;6216;51.146;7.008;2022-07-06T01:10:22;5.13;;;1.53;;
12306;SDS011;6216;51.146;7.008;2022-07-06T01:12:51;3.73;;;1.50;;
12306;SDS011;6216;51.146;7.008;2022-07-06T01:15:22;4.67;;;1.80;;
12306;SDS011;6216;51.146;7.008;2022-07-06T01:17:51;3.60;;;1.80;;
12306;SDS011;6216;51.146;7.008;2022-07-06T01:20:21;2.20;;;1.40;;
12306;SDS011;6216;51.146;7.008;2022-07-06T01:22:51;4.13;;;1.50;;
12306;SDS011;6216;51.146;7.008;2022-07-06T01:25:20;3.83;;;1.50;;
12306;SDS011;6216;51.146;7.008;2022-07-06T01:27:49;4.57;;;1.73;;
12306;SDS011;6216;51.146;7.008;2022-07-06T01:30:17;4.13;;;1.80;;
12306;SDS011;6216;51.146;7.008;2022-07-06T01:32:46;7.63;;;1.90;;
12306;SDS011;6216;51.146;7.008;2022-07-06T01:35:15;2.87;;;1.30;;
12306;SDS011;6216;51.146;7.008;2022-07-06T01:37:44;3.33;;;1.40;;
12306;SDS011;6216;51.146;7.008;2022-07-06T01:40:12;2.43;;;1.20;;
12306;SDS011;6216;51.146;7.008;2022-07-06T01:42:40;3.53;;;1.47;;
12306;SDS011;6216;51.146;7.008;2022-07-06T01:45:09;3.57;;;1.13;;
12306;SDS011;6216;51.146;7.008;2022-07-06T01:47:37;3.17;;;1.17;;
12306;SDS011;6216;51.146;7.008;2022-07-06T01:50:06;4.03;;;1.53;;
12306;SDS011;6216;51.146;7.008;2022-07-06T01:52:35;2.77;;;1.20;;
12306;SDS011;6216;51.146;7.008;2022-07-06T01:55:05;4.90;;;1.80;;
12306;SDS011;6216;51.146;7.008;2022-07-06T01:57:33;3.23;;;1.10;;
12306;SDS011;6216;51.146;7.008;2022-07-06T02:00:01;4.00;;;1.53;;
12306;SDS011;6216;51.146;7.008;2022-07-06T02:02:31;5.77;;;1.60;;
12306;SDS011;6216;51.146;7.008;2022-07-06T02:04:59;2.90;;;1.33;;
12306;SDS011;6216;51.146;7.008;2022-07-06T02:07:27;3.13;;;1.50;;
12306;SDS011;6216;51.146;7.008;2022-07-06T02:09:55;4.13;;;1.30;;
12306;SDS011;6216;51.146;7.008;2022-07-06T02:12:24;4.40;;;1.47;;
12306;SDS011;6216;51.146;7.008;2022-07-06T02:14:52;1.67;;;1.17;;
12306;SDS011;6216;51.146;7.008;2022-07-06T02:17:20;3.00;;;1.30;;
12306;SDS011;6216;51.146;7.008;2022-07-06T02:19:47;3.13;;;1.30;;
12306;SDS011;6216;51.146;7.008;2022-07-06T02:22:15;4.83;;;1.37;;
12306;SDS011;6216;51.146;7.008;2022-07-06T02:24:43;8.23;;;2.10;;
12306;SDS011;6216;51.146;7.008;2022-07-06T02:27:11;3.93;;;1.20;;
12306;SDS011;6216;51.146;7.008;2022-07-06T02:29:40;2.83;;;1.30;;
12306;SDS011;6216;51.146;7.008;2022-07-06T02:32:08;3.17;;;1.10;;
12306;SDS011;6216;51.146;7.008;2022-07-06T02:34:36;2.50;;;1.33;;
12306;SDS011;6216;51.146;7.008;2022-07-06T02:37:04;2.67;;;1.30;;
12306;SDS011;6216;51.146;7.008;2022-07-06T02:39:32;3.80;;;1.30;;
12306;SDS011;6216;51.146;7.008;2022-07-06T02:41:59;3.23;;;1.57;;
12306;SDS011;6216;51.146;7.008;2022-07-06T02:44:27;3.73;;;1.53;;
12306;SDS011;6216;51.146;7.008;2022-07-06T02:46:56;2.10;;;1.30;;
12306;SDS011;6216;51.146;7.008;2022-07-06T02:49:24;2.83;;;1.60;;
12306;SDS011;6216;51.146;7.008;2022-07-06T02:51:52;3.23;;;1.37;;
12306;SDS011;6216;51.146;7.008;2022-07-06T02:54:20;3.60;;;1.60;;
12306;SDS011;6216;51.146;7.008;2022-07-06T02:56:48;2.43;;;1.33;;
12306;SDS011;6216;51.146;7.008;2022-07-06T02:59:18;3.07;;;1.37;;
12306;SDS011;6216;51.146;7.008;2022-07-06T03:01:46;4.70;;;1.63;;
12306;SDS011;6216;51.146;7.008;2022-07-06T03:04:16;3.27;;;1.60;;
12306;SDS011;6216;51.146;7.008;2022-07-06T03:06:43;3.57;;;1.80;;
12306;SDS011;6216;51.146;7.008;2022-07-06T03:09:11;3.33;;;1.40;;
12306;SDS011;6216;51.146;7.008;2022-07-06T03:11:39;4.80;;;1.70;;
12306;SDS011;6216;51.146;7.008;2022-07-06T03:14:07;2.83;;;1.50;;
12306;SDS011;6216;51.146;7.008;2022-07-06T03:16:35;4.10;;;1.80;;
12306;SDS011;6216;51.146;7.008;2022-07-06T03:19:03;4.53;;;1.93;;
12306;SDS011;6216;51.146;7.008;2022-07-06T03:21:32;3.63;;;2.10;;
12306;SDS011;6216;51.146;7.008;2022-07-06T03:24:00;5.33;;;1.70;;
12306;SDS011;6216;51.146;7.008;2022-07-06T03:26:28;5.20;;;1.83;;
12306;SDS011;6216;51.146;7.008;2022-07-06T03:28:56;3.97;;;1.70;;
12306;SDS011;6216;51.146;7.008;2022-07-06T03:31:24;5.20;;;1.60;;
12306;SDS011;6216;51.146;7.008;2022-07-06T03:33:52;6.07;;;2.00;;
12306;SDS011;6216;51.146;7.008;2022-07-06T03:36:19;4.80;;;1.90;;
12306;SDS011;6216;51.146;7.008;2022-07-06T03:38:49;4.40;;;2.23;;
12306;SDS011;6216;51.146;7.008;2022-07-06T03:41:17;4.63;;;1.90;;
12306;SDS011;6216;51.146;7.008;2022-07-06T03:43:44;4.23;;;1.97;;
12306;SDS011;6216;51.146;7.008;2022-07-06T03:46:12;3.20;;;1.80;;
12306;SDS011;6216;51.146;7.008;2022-07-06T03:48:40;2.70;;;1.90;;
12306;SDS011;6216;51.146;7.008;2022-07-06T03:51:08;4.10;;;2.00;;
12306;SDS011;6216;51.146;7.008;2022-07-06T03:53:37;5.67;;;2.23;;
12306;SDS011;6216;51.146;7.008;2022-07-06T03:56:06;3.87;;;1.70;;
12306;SDS011;6216;51.146;7.008;2022-07-06T03:58:55;3.93;;;2.00;;
12306;SDS011;6216;51.146;7.008;2022-07-06T04:01:24;3.53;;;1.90;;
12306;SDS011;6216;51.146;7.008;2022-07-06T04:03:52;5.07;;;1.90;;
12306;SDS011;6216;51.146;7.008;2022-07-06T04:06:21;4.87;;;2.03;;
12306;SDS011;6216;51.146;7.008;2022-07-06T04:08:49;2.40;;;2.00;;
12306;SDS011;6216;51.146;7.008;2022-07-06T04:11:18;3.57;;;2.00;;
12306;SDS011;6216;51.146;7.008;2022-07-06T04:13:46;5.57;;;2.43;;
12306;SDS011;6216;51.146;7.008;2022-07-06T04:16:14;2.07;;;1.70;;
12306;SDS011;6216;51.146;7.008;2022-07-06T04:18:42;3.00;;;1.80;;
12306;SDS011;6216;51.146;7.008;2022-07-06T04:21:10;3.43;;;2.07;;
12306;SDS011;6216;51.146;7.008;2022-07-06T04:23:37;5.23;;;2.10;;
12306;SDS011;6216;51.146;7.008;2022-07-06T04:26:05;5.17;;;2.20;;
12306;SDS011;6216;51.146;7.008;2022-07-06T04:28:35;4.97;;;2.17;;
12306;SDS011;6216;51.146;7.008;2022-07-06T04:31:03;3.30;;;2.17;;
12306;SDS011;6216;51.146;7.008;2022-07-06T04:33:31;7.70;;;2.43;;
12306;SDS011;6216;51.146;7.008;2022-07-06T04:35:58;3.57;;;2.13;;
12306;SDS011;6216;51.146;7.008;2022-07-06T04:38:26;4.17;;;2.33;;
12306;SDS011;6216;51.146;7.008;2022-07-06T04:40:54;4.73;;;2.30;;
12306;SDS011;6216;51.146;7.008;2022-07-06T04:43:22;5.53;;;2.40;;
12306;SDS011;6216;51.146;7.008;2022-07-06T04:45:51;4.70;;;2.37;;
12306;SDS011;6216;51.146;7.008;2022-07-06T04:48:19;3.60;;;2.27;;
12306;SDS011;6216;51.146;7.008;2022-07-06T04:50:47;4.07;;;2.60;;
12306;SDS011;6216;51.146;7.008;2022-07-06T04:53:15;3.50;;;1.93;;
12306;SDS011;6216;51.146;7.008;2022-07-06T04:55:42;5.63;;;2.27;;
12306;SDS011;6216;51.146;7.008;2022-07-06T04:58:10;5.23;;;2.70;;
12306;SDS011;6216;51.146;7.008;2022-07-06T05:00:38;6.23;;;2.47;;
12306;SDS011;6216;51.146;7.008;2022-07-06T05:03:07;3.73;;;2.30;;
12306;SDS011;6216;51.146;7.008;2022-07-06T05:05:35;5.53;;;2.30;;
12306;SDS011;6216;51.146;7.008;2022-07-06T05:08:03;6.43;;;2.63;;
12306;SDS011;6216;51.146;7.008;2022-07-06T05:10:31;3.63;;;2.27;;
12306;SDS011;6216;51.146;7.008;2022-07-06T05:12:59;2.67;;;2.30;;
12306;SDS011;6216;51.146;7.008;2022-07-06T05:15:27;3.57;;;2.30;;
12306;SDS011;6216;51.146;7.008;2022-07-06T05:17:56;4.77;;;2.30;;
12306;SDS011;6216;51.146;7.008;2022-07-06T05:20:25;3.73;;;2.53;;
12306;SDS011;6216;51.146;7.008;2022-07-06T05:22:53;5.43;;;2.70;;
12306;SDS011;6216;51.146;7.008;2022-07-06T05:25:21;4.47;;;2.43;;
12306;SDS011;6216;51.146;7.008;2022-07-06T05:27:49;5.37;;;2.77;;
12306;SDS011;6216;51.146;7.008;2022-07-06T05:30:19;4.43;;;2.50;;
12306;SDS011;6216;51.146;7.008;2022-07-06T05:32:47;4.87;;;2.50;;
12306;SDS011;6216;51.146;7.008;2022-07-06T05:35:14;5.13;;;2.40;;
12306;SDS011;6216;51.146;7.008;2022-07-06T05:38:04;5.23;;;2.50;;
12306;SDS011;6216;51.146;7.008;2022-07-06T05:40:32;4.83;;;2.40;;
12306;SDS011;6216;51.146;7.008;2022-07-06T05:43:00;2.80;;;2.37;;
12306;SDS011;6216;51.146;7.008;2022-07-06T05:45:28;5.77;;;2.77;;
12306;SDS011;6216;51.146;7.008;2022-07-06T05:47:56;5.33;;;2.77;;
12306;SDS011;6216;51.146;7.008;2022-07-06T05:50:41;3.70;;;2.40;;
12306;SDS011;6216;51.146;7.008;2022-07-06T05:53:10;3.90;;;2.60;;
12306;SDS011;6216;51.146;7.008;2022-07-06T05:55:45;5.93;;;2.40;;
12306;SDS011;6216;51.146;7.008;2022-07-06T05:58:13;5.73;;;2.43;;
12306;SDS011;6216;51.146;7.008;2022-07-06T06:00:41;4.23;;;2.50;;
12306;SDS011;6216;51.146;7.008;2022-07-06T06:03:09;5.30;;;2.17;;
12306;SDS011;6216;51.146;7.008;2022-07-06T06:05:37;5.60;;;2.03;;
12306;SDS011;6216;51.146;7.008;2022-07-06T06:08:05;7.93;;;2.67;;
12306;SDS011;6216;51.146;7.008;2022-07-06T06:10:34;5.67;;;2.10;;
12306;SDS011;6216;51.146;7.008;2022-07-06T06:13:02;4.23;;;2.53;;
12306;SDS011;6216;51.146;7.008;2022-07-06T06:15:30;3.63;;;2.37;;
12306;SDS011;6216;51.146;7.008;2022-07-06T06:17:58;3.73;;;2.07;;
12306;SDS011;6216;51.146;7.008;2022-07-06T06:20:26;5.40;;;2.60;;
12306;SDS011;6216;51.146;7.008;2022-07-06T06:22:55;4.47;;;2.63;;
12306;SDS011;6216;51.146;7.008;2022-07-06T06:25:27;6.50;;;2.73;;
12306;SDS011;6216;51.146;7.008;2022-07-06T06:27:57;5.50;;;2.57;;
12306;SDS011;6216;51.146;7.008;2022-07-06T06:30:26;3.63;;;2.30;;
12306;SDS011;6216;51.146;7.008;2022-07-06T06:33:04;4.07;;;2.33;;
12306;SDS011;6216;51.146;7.008;2022-07-06T06:35:36;2.23;;;1.83;;
12306;SDS011;6216;51.146;7.008;2022-07-06T06:38:04;4.20;;;2.27;;
12306;SDS011;6216;51.146;7.008;2022-07-06T06:40:32;4.23;;;2.50;;
12306;SDS011;6216;51.146;7.008;2022-07-06T06:43:02;3.47;;;2.00;;
12306;SDS011;6216;51.146;7.008;2022-07-06T06:45:31;4.93;;;1.70;;
12306;SDS011;6216;51.146;7.008;2022-07-06T06:47:59;6.57;;;2.43;;
12306;SDS011;6216;51.146;7.008;2022-07-06T06:50:27;4.43;;;2.17;;
12306;SDS011;6216;51.146;7.008;2022-07-06T06:52:55;3.80;;;1.80;;
12306;SDS011;6216;51.146;7.008;2022-07-06T06:55:22;4.77;;;2.30;;
12306;SDS011;6216;51.146;7.008;2022-07-06T06:57:50;3.57;;;1.37;;
12306;SDS011;6216;51.146;7.008;2022-07-06T07:00:20;2.90;;;1.23;;
12306;SDS011;6216;51.146;7.008;2022-07-06T07:02:47;4.80;;;1.50;;
12306;SDS011;6216;51.146;7.008;2022-07-06T07:05:15;4.00;;;1.20;;
12306;SDS011;6216;51.146;7.008;2022-07-06T07:07:43;3.00;;;1.20;;
12306;SDS011;6216;51.146;7.008;2022-07-06T07:10:11;2.17;;;1.30;;
12306;SDS011;6216;51.146;7.008;2022-07-06T07:12:42;3.47;;;1.27;;
12306;SDS011;6216;51.146;7.008;2022-07-06T07:15:11;5.13;;;1.47;;
12306;SDS011;6216;51.146;7.008;2022-07-06T07:17:41;2.30;;;0.97;;
12306;SDS011;6216;51.146;7.008;2022-07-06T07:20:09;3.20;;;0.93;;
12306;SDS011;6216;51.146;7.008;2022-07-06T07:22:37;1.83;;;0.90;;
12306;SDS011;6216;51.146;7.008;2022-07-06T07:25:06;3.57;;;1.20;;
12306;SDS011;6216;51.146;7.008;2022-07-06T07:27:34;3.03;;;1.00;;
12306;SDS011;6216;51.146;7.008;2022-07-06T07:30:03;4.13;;;1.00;;
12306;SDS011;6216;51.146;7.008;2022-07-06T07:32:31;1.57;;;0.83;;
12306;SDS011;6216;51.146;7.008;2022-07-06T07:35:00;2.93;;;0.97;;
12306;SDS011;6216;51.146;7.008;2022-07-06T07:37:28;2.80;;;0.97;;
12306;SDS011;6216;51.146;7.008;2022-07-06T07:39:56;2.10;;;0.90;;
12306;SDS011;6216;51.146;7.008;2022-07-06T07:42:24;2.83;;;1.10;;
12306;SDS011;6216;51.146;7.008;2022-07-06T07:44:52;2.07;;;1.17;;
12306;SDS011;6216;51.146;7.008;2022-07-06T07:47:20;3.87;;;1.20;;
12306;SDS011;6216;51.146;7.008;2022-07-06T07:49:49;2.93;;;1.00;;
12306;SDS011;6216;51.146;7.008;2022-07-06T07:52:18;2.87;;;1.00;;
12306;SDS011;6216;51.146;7.008;2022-07-06T07:54:46;2.90;;;0.80;;
12306;SDS011;6216;51.146;7.008;2022-07-06T07:57:34;3.73;;;1.10;;
12306;SDS011;6216;51.146;7.008;2022-07-06T08:00:03;1.33;;;0.70;;
12306;SDS011;6216;51.146;7.008;2022-07-06T08:02:32;2.87;;;0.70;;
12306;SDS011;6216;51.146;7.008;2022-07-06T08:05:00;1.50;;;0.70;;
12306;SDS011;6216;51.146;7.008;2022-07-06T08:07:29;2.67;;;0.80;;
12306;SDS011;6216;51.146;7.008;2022-07-06T08:09:58;1.67;;;0.57;;
12306;SDS011;6216;51.146;7.008;2022-07-06T08:12:25;1.47;;;0.53;;
12306;SDS011;6216;51.146;7.008;2022-07-06T08:14:53;2.43;;;0.83;;
12306;SDS011;6216;51.146;7.008;2022-07-06T08:17:22;1.37;;;0.60;;
12306;SDS011;6216;51.146;7.008;2022-07-06T08:19:53;2.97;;;0.67;;
12306;SDS011;6216;51.146;7.008;2022-07-06T08:22:21;1.93;;;0.60;;
12306;SDS011;6216;51.146;7.008;2022-07-06T08:24:50;2.53;;;0.90;;
12306;SDS011;6216;51.146;7.008;2022-07-06T08:27:18;1.40;;;0.60;;
12306;SDS011;6216;51.146;7.008;2022-07-06T08:29:46;2.00;;;0.90;;
12306;SDS011;6216;51.146;7.008;2022-07-06T08:32:14;2.40;;;0.80;;
12306;SDS011;6216;51.146;7.008;2022-07-06T08:35:00;2.23;;;0.80;;
12306;SDS011;6216;51.146;7.008;2022-07-06T08:37:28;2.87;;;0.97;;
12306;SDS011;6216;51.146;7.008;2022-07-06T08:39:57;1.47;;;0.70;;
12306;SDS011;6216;51.146;7.008;2022-07-06T08:42:25;1.30;;;0.70;;
12306;SDS011;6216;51.146;7.008;2022-07-06T08:44:58;2.80;;;0.70;;
12306;SDS011;6216;51.146;7.008;2022-07-06T08:47:27;1.53;;;0.77;;
12306;SDS011;6216;51.146;7.008;2022-07-06T08:49:55;2.43;;;0.80;;
12306;SDS011;6216;51.146;7.008;2022-07-06T08:52:23;6.37;;;0.80;;
12306;SDS011;6216;51.146;7.008;2022-07-06T08:54:51;2.10;;;0.63;;
12306;SDS011;6216;51.146;7.008;2022-07-06T08:57:21;1.70;;;0.73;;
12306;SDS011;6216;51.146;7.008;2022-07-06T08:59:49;1.40;;;0.60;;
12306;SDS011;6216;51.146;7.008;2022-07-06T09:02:17;1.90;;;0.77;;
12306;SDS011;6216;51.146;7.008;2022-07-06T09:04:46;2.10;;;0.90;;
12306;SDS011;6216;51.146;7.008;2022-07-06T09:07:15;1.10;;;0.80;;
12306;SDS011;6216;51.146;7.008;2022-07-06T09:10:05;0.70;;;0.40;;
12306;SDS011;6216;51.146;7.008;2022-07-06T09:12:36;0.70;;;0.40;;
12306;SDS011;6216;51.146;7.008;2022-07-06T09:15:04;1.63;;;0.67;;
12306;SDS011;6216;51.146;7.008;2022-07-06T09:17:37;2.27;;;0.60;;
12306;SDS011;6216;51.146;7.008;2022-07-06T09:20:06;2.00;;;0.77;;
12306;SDS011;6216;51.146;7.008;2022-07-06T09:22:35;5.30;;;0.70;;
12306;SDS011;6216;51.146;7.008;2022-07-06T09:25:04;1.40;;;0.60;;
12306;SDS011;6216;51.146;7.008;2022-07-06T09:27:37;2.63;;;0.73;;
12306;SDS011;6216;51.146;7.008;2022-07-06T09:30:10;1.73;;;0.60;;
12306;SDS011;6216;51.146;7.008;2022-07-06T09:32:39;1.50;;;0.93;;
12306;SDS011;6216;51.146;7.008;2022-07-06T09:35:20;1.23;;;0.50;;
12306;SDS011;6216;51.146;7.008;2022-07-06T09:37:59;2.30;;;0.70;;
12306;SDS011;6216;51.146;7.008;2022-07-06T09:40:31;1.03;;;0.47;;
12306;SDS011;6216;51.146;7.008;2022-07-06T09:43:08;0.50;;;0.30;;
12306;SDS011;6216;51.146;7.008;2022-07-06T09:45:37;0.50;;;0.30;;
12306;SDS011;6216;51.146;7.008;2022-07-06T09:48:07;1.73;;;0.60;;
12306;SDS011;6216;51.146;7.008;2022-07-06T09:50:40;0.50;;;0.50;;
12306;SDS011;6216;51.146;7.008;2022-07-06T09:53:09;1.57;;;0.57;;
12306;SDS011;6216;51.146;7.008;2022-07-06T09:55:51;4.53;;;0.70;;
12306;SDS011;6216;51.146;7.008;2022-07-06T09:58:25;1.27;;;0.40;;
12306;SDS011;6216;51.146;7.008;2022-07-06T10:01:14;2.73;;;0.40;;
12306;SDS011;6216;51.146;7.008;2022-07-06T10:03:53;1.43;;;0.80;;
12306;SDS011;6216;51.146;7.008;2022-07-06T10:06:22;1.17;;;0.60;;
12306;SDS011;6216;51.146;7.008;2022-07-06T10:08:52;2.97;;;0.80;;
12306;SDS011;6216;51.146;7.008;2022-07-06T10:11:22;1.23;;;0.60;;
12306;SDS011;6216;51.146;7.008;2022-07-06T10:13:52;1.70;;;0.70;;
12306;SDS011;6216;51.146;7.008;2022-07-06T10:16:22;2.20;;;0.60;;
12306;SDS011;6216;51.146;7.008;2022-07-06T10:18:51;3.33;;;0.70;;
12306;SDS011;6216;51.146;7.008;2022-07-06T10:21:22;1.17;;;0.40;;
12306;SDS011;6216;51.146;7.008;2022-07-06T10:23:50;3.40;;;0.70;;
12306;SDS011;6216;51.146;7.008;2022-07-06T10:26:19;1.70;;;0.67;;
12306;SDS011;6216;51.146;7.008;2022-07-06T10:28:53;1.90;;;0.83;;
12306;SDS011;6216;51.146;7.008;2022-07-06T10:31:32;0.90;;;0.70;;
12306;SDS011;6216;51.146;7.008;2022-07-06T10:34:03;0.50;;;0.43;;
12306;SDS011;6216;51.146;7.008;2022-07-06T10:36:36;0.80;;;0.60;;
12306;SDS011;6216;51.146;7.008;2022-07-06T10:39:09;1.23;;;0.60;;
12306;SDS011;6216;51.146;7.008;2022-07-06T10:41:57;3.30;;;0.87;;
12306;SDS011;6216;51.146;7.008;2022-07-06T10:44:26;1.47;;;0.60;;
12306;SDS011;6216;51.146;7.008;2022-07-06T10:46:58;1.47;;;0.70;;
12306;SDS011;6216;51.146;7.008;2022-07-06T10:49:26;1.20;;;0.50;;
12306;SDS011;6216;51.146;7.008;2022-07-06T10:52:16;1.33;;;0.60;;
12306;SDS011;6216;51.146;7.008;2022-07-06T10:54:44;3.03;;;0.70;;
12306;SDS011;6216;51.146;7.008;2022-07-06T10:57:14;1.73;;;0.83;;
12306;SDS011;6216;51.146;7.008;2022-07-06T10:59:50;2.10;;;0.50;;
12306;SDS011;6216;51.146;7.008;2022-07-06T11:02:29;1.83;;;0.50;;
12306;SDS011;6216;51.146;7.008;2022-07-06T11:05:09;0.63;;;0.40;;
12306;SDS011;6216;51.146;7.008;2022-07-06T11:07:48;3.23;;;0.70;;
12306;SDS011;6216;51.146;7.008;2022-07-06T11:10:17;1.13;;;0.60;;
12306;SDS011;6216;51.146;7.008;2022-07-06T11:12:45;1.10;;;0.80;;
12306;SDS011;6216;51.146;7.008;2022-07-06T11:15:21;1.43;;;0.67;;
12306;SDS011;6216;51.146;7.008;2022-07-06T11:18:18;1.77;;;0.90;;
12306;SDS011;6216;51.146;7.008;2022-07-06T11:23:59;2.43;;;0.97;;
12306;SDS011;6216;51.146;7.008;2022-07-06T11:26:27;2.17;;;0.80;;
12306;SDS011;6216;51.146;7.008;2022-07-06T11:29:03;1.97;;;0.63;;
12306;SDS011;6216;51.146;7.008;2022-07-06T11:31:35;4.23;;;1.17;;
12306;SDS011;6216;51.146;7.008;2022-07-06T11:34:04;3.97;;;0.70;;
12306;SDS011;6216;51.146;7.008;2022-07-06T11:36:33;1.40;;;0.77;;
12306;SDS011;6216;51.146;7.008;2022-07-06T11:39:10;2.60;;;1.10;;
12306;SDS011;6216;51.146;7.008;2022-07-06T11:41:38;2.43;;;0.83;;
12306;SDS011;6216;51.146;7.008;2022-07-06T11:44:11;2.33;;;0.60;;
12306;SDS011;6216;51.146;7.008;2022-07-06T11:46:41;1.37;;;0.60;;
12306;SDS011;6216;51.146;7.008;2022-07-06T11:49:09;2.47;;;0.63;;
12306;SDS011;6216;51.146;7.008;2022-07-06T11:51:38;1.37;;;0.57;;
12306;SDS011;6216;51.146;7.008;2022-07-06T11:54:10;1.37;;;0.70;;
12306;SDS011;6216;51.146;7.008;2022-07-06T11:56:44;0.90;;;0.53;;
12306;SDS011;6216;51.146;7.008;2022-07-06T11:59:13;2.70;;;0.67;;
12306;SDS011;6216;51.146;7.008;2022-07-06T12:01:44;1.20;;;0.67;;
12306;SDS011;6216;51.146;7.008;2022-07-06T12:04:12;1.77;;;0.50;;
12306;SDS011;6216;51.146;7.008;2022-07-06T12:06:40;1.43;;;0.60;;
12306;SDS011;6216;51.146;7.008;2022-07-06T12:09:11;3.37;;;0.97;;
12306;SDS011;6216;51.146;7.008;2022-07-06T12:11:40;0.47;;;0.47;;
12306;SDS011;6216;51.146;7.008;2022-07-06T12:14:13;1.37;;;0.60;;
12306;SDS011;6216;51.146;7.008;2022-07-06T12:16:42;11.63;;;1.33;;
12306;SDS011;6216;51.146;7.008;2022-07-06T12:19:11;2.23;;;0.80;;
12306;SDS011;6216;51.146;7.008;2022-07-06T12:21:43;3.27;;;0.57;;
12306;SDS011;6216;51.146;7.008;2022-07-06T12:24:16;1.33;;;0.70;;
12306;SDS011;6216;51.146;7.008;2022-07-06T12:26:46;1.17;;;0.70;;
12306;SDS011;6216;51.146;7.008;2022-07-06T12:29:15;0.93;;;0.60;;
12306;SDS011;6216;51.146;7.008;2022-07-06T12:31:44;1.10;;;0.60;;
12306;SDS011;6216;51.146;7.008;2022-07-06T12:34:20;4.20;;;0.87;;
12306;SDS011;6216;51.146;7.008;2022-07-06T12:36:50;2.50;;;0.87;;
12306;SDS011;6216;51.146;7.008;2022-07-06T12:39:19;1.77;;;0.73;;
12306;SDS011;6216;51.146;7.008;2022-07-06T12:41:49;2.47;;;0.77;;
12306;SDS011;6216;51.146;7.008;2022-07-06T12:44:19;2.30;;;0.90;;
12306;SDS011;6216;51.146;7.008;2022-07-06T12:46:48;1.97;;;0.70;;
12306;SDS011;6216;51.146;7.008;2022-07-06T12:49:18;1.97;;;0.70;;
12306;SDS011;6216;51.146;7.008;2022-07-06T12:51:56;2.83;;;0.93;;
12306;SDS011;6216;51.146;7.008;2022-07-06T12:54:27;1.77;;;0.63;;
12306;SDS011;6216;51.146;7.008;2022-07-06T12:57:00;1.00;;;0.50;;
12306;SDS011;6216;51.146;7.008;2022-07-06T12:59:34;1.63;;;0.70;;
12306;SDS011;6216;51.146;7.008;2022-07-06T13:02:06;1.10;;;0.50;;
12306;SDS011;6216;51.146;7.008;2022-07-06T13:04:37;2.00;;;0.87;;
12306;SDS011;6216;51.146;7.008;2022-07-06T13:07:05;1.67;;;0.60;;
12306;SDS011;6216;51.146;7.008;2022-07-06T13:09:33;1.27;;;0.40;;
12306;SDS011;6216;51.146;7.008;2022-07-06T13:12:02;1.93;;;0.60;;
12306;SDS011;6216;51.146;7.008;2022-07-06T13:14:30;1.10;;;0.53;;
12306;SDS011;6216;51.146;7.008;2022-07-06T13:16:58;2.43;;;0.57;;
12306;SDS011;6216;51.146;7.008;2022-07-06T13:19:27;4.73;;;0.67;;
12306;SDS011;6216;51.146;7.008;2022-07-06T13:21:57;2.20;;;0.90;;
12306;SDS011;6216;51.146;7.008;2022-07-06T13:24:25;1.63;;;0.50;;
12306;SDS011;6216;51.146;7.008;2022-07-06T13:26:54;2.03;;;0.80;;
12306;SDS011;6216;51.146;7.008;2022-07-06T13:29:22;0.77;;;0.60;;
12306;SDS011;6216;51.146;7.008;2022-07-06T13:31:51;1.27;;;0.50;;
12306;SDS011;6216;51.146;7.008;2022-07-06T13:34:19;1.40;;;0.70;;
12306;SDS011;6216;51.146;7.008;2022-07-06T13:36:47;3.53;;;0.57;;
12306;SDS011;6216;51.146;7.008;2022-07-06T13:39:16;1.00;;;0.63;;
12306;SDS011;6216;51.146;7.008;2022-07-06T13:41:44;3.77;;;0.80;;
12306;SDS011;6216;51.146;7.008;2022-07-06T13:44:12;0.80;;;0.50;;
12306;SDS011;6216;51.146;7.008;2022-07-06T13:46:40;2.33;;;0.80;;
12306;SDS011;6216;51.146;7.008;2022-07-06T13:49:09;2.27;;;0.80;;
12306;SDS011;6216;51.146;7.008;2022-07-06T13:51:37;1.57;;;0.60;;
12306;SDS011;6216;51.146;7.008;2022-07-06T13:54:05;0.87;;;0.60;;
12306;SDS011;6216;51.146;7.008;2022-07-06T13:56:50;4.30;;;0.70;;
12306;SDS011;6216;51.146;7.008;2022-07-06T13:59:28;2.70;;;1.17;;
12306;SDS011;6216;51.146;7.008;2022-07-06T14:01:57;3.13;;;0.90;;
12306;SDS011;6216;51.146;7.008;2022-07-06T14:04:25;1.90;;;0.63;;
12306;SDS011;6216;51.146;7.008;2022-07-06T14:06:55;3.07;;;0.70;;
12306;SDS011;6216;51.146;7.008;2022-07-06T14:09:23;3.67;;;0.90;;
12306;SDS011;6216;51.146;7.008;2022-07-06T14:11:52;1.27;;;0.50;;
12306;SDS011;6216;51.146;7.008;2022-07-06T14:14:20;1.73;;;0.70;;
12306;SDS011;6216;51.146;7.008;2022-07-06T14:16:48;2.07;;;0.80;;
12306;SDS011;6216;51.146;7.008;2022-07-06T14:19:18;2.93;;;0.63;;
12306;SDS011;6216;51.146;7.008;2022-07-06T14:21:47;1.40;;;0.67;;
12306;SDS011;6216;51.146;7.008;2022-07-06T14:24:15;1.57;;;0.93;;
12306;SDS011;6216;51.146;7.008;2022-07-06T14:26:43;0.77;;;0.40;;
12306;SDS011;6216;51.146;7.008;2022-07-06T14:29:12;1.90;;;0.57;;
12306;SDS011;6216;51.146;7.008;2022-07-06T14:31:40;1.43;;;0.50;;
12306;SDS011;6216;51.146;7.008;2022-07-06T14:34:08;1.63;;;0.60;;
12306;SDS011;6216;51.146;7.008;2022-07-06T14:36:35;2.03;;;0.60;;
12306;SDS011;6216;51.146;7.008;2022-07-06T14:39:04;4.23;;;0.60;;
12306;SDS011;6216;51.146;7.008;2022-07-06T14:41:32;3.90;;;0.67;;
12306;SDS011;6216;51.146;7.008;2022-07-06T14:44:01;3.37;;;0.67;;
12306;SDS011;6216;51.146;7.008;2022-07-06T14:46:30;0.83;;;0.67;;
12306;SDS011;6216;51.146;7.008;2022-07-06T14:49:00;2.40;;;0.80;;
12306;SDS011;6216;51.146;7.008;2022-07-06T14:51:34;2.30;;;0.60;;
12306;SDS011;6216;51.146;7.008;2022-07-06T14:54:02;1.40;;;0.60;;
12306;SDS011;6216;51.146;7.008;2022-07-06T14:56:30;2.37;;;0.40;;
12306;SDS011;6216;51.146;7.008;2022-07-06T14:59:07;1.60;;;0.60;;
12306;SDS011;6216;51.146;7.008;2022-07-06T15:01:55;1.77;;;0.77;;
12306;SDS011;6216;51.146;7.008;2022-07-06T15:04:23;1.43;;;0.60;;
12306;SDS011;6216;51.146;7.008;2022-07-06T15:06:52;1.70;;;0.70;;
12306;SDS011;6216;51.146;7.008;2022-07-06T15:09:22;2.10;;;0.70;;
12306;SDS011;6216;51.146;7.008;2022-07-06T15:11:50;1.70;;;0.90;;
12306;SDS011;6216;51.146;7.008;2022-07-06T15:14:18;1.37;;;0.70;;
12306;SDS011;6216;51.146;7.008;2022-07-06T15:16:46;1.27;;;0.70;;
12306;SDS011;6216;51.146;7.008;2022-07-06T15:19:16;1.23;;;0.90;;